Flight Track Log - Related Links

Times and Time Zones

All times are in EST time to prevent confusion due to time zone crossing. See the RPA3275 flight status page for this flight to view local times or setup timezone preferences in your user account.

Time Position Orientation Groundspeed Altitude Reporting Facility
EST Latitude Longitude Course Direction KTS MPH feet Rate Location/Type
Wed 07:51:34 AM 42.7614 -73.8067 180° South 136 157 1,600  Level Boston Center
Wed 07:52:23 AM 42.7936 -73.8175 346° North 176 203 3,400 2,625 Climbing Boston Center
Wed 07:52:38 AM 42.7981 -73.8386 286° West 181 208 4,400 3,452 Climbing Boston Center
Wed 07:53:36 AM 42.7872 -73.9222 260° West 229 264 7,600 2,754 Climbing Boston Center
Wed 07:54:00 AM 42.3686 -74.0003 180° South  Level Estimated
Wed 07:54:40 AM 42.7772 -74.0206 262° West 264 304 10,000  Level Boston Center
Wed 07:55:00 AM 42.2885 -74.0854 218° Southwest  Level FlightAware
Wed 07:55:41 AM 42.7650 -74.1286 261° West 290 334 10,700  Level Boston Center
Wed 07:56:00 AM 42.1928 -74.1329 180° South  Level Estimated
Wed 07:56:41 AM 42.7519 -74.2478 262° West 297 342 12,600  Level Boston Center
Wed 07:57:42 AM 42.7147 -74.3425 242° Southwest 311 358 15,100 2,459 Climbing Boston Center
Wed 07:58:43 AM 42.6453 -74.4239 221° Southwest 328 377 17,600 1,426 Climbing Boston Center
Wed 07:59:44 AM 42.5703 -74.5108 221° Southwest 356 410 18,000 197 Climbing Boston Center
Wed 08:00:45 AM 42.4867 -74.6067 220° Southwest 365 420 18,000  Level Boston Center
Wed 08:01:47 AM 42.4089 -74.6961 220° Southwest 368 423 18,000  Level Boston Center
Wed 08:02:48 AM 42.3286 -74.7864 220° Southwest 372 428 18,000  Level Boston Center
Wed 08:03:48 AM 42.2461 -74.8825 221° Southwest 374 430 18,000  Level Boston Center
Wed 08:04:48 AM 42.1667 -74.9700 219° Southwest 372 428 18,000  Level Boston Center
Wed 08:05:49 AM 42.0778 -75.0422 211° Southwest 375 432 18,000  Level Boston Center
Wed 08:06:52 AM 41.9886 -75.1111 210° Southwest 375 432 18,000  Level Boston Center
Wed 08:07:53 AM 41.9042 -75.1850 213° Southwest 376 433 18,000  Level Boston Center
Wed 08:08:56 AM 41.8006 -75.2700 211° Southwest 381 438 18,000 -98 Level New Center
Wed 08:09:56 AM 41.7169 -75.3367 211° Southwest 381 438 17,800 -1,000 Descending New Center
Wed 08:10:56 AM 41.6222 -75.4133 211° Southwest 376 433 16,000 -1,950 Descending New Center
Wed 08:11:56 AM 41.5406 -75.4769 210° Southwest 362 417 13,900 -1,850 Descending New Center
Wed 08:12:56 AM 41.4653 -75.5381 211° Southwest 340 391 12,300 -950 Descending New Center
Wed 08:13:56 AM 41.3986 -75.5914 211° Southwest 322 371 12,000 -150 Descending New Center
Wed 08:14:56 AM 41.3233 -75.6497 210° Southwest 322 371 12,000 -300 Level New Center
Wed 08:15:56 AM 41.2447 -75.6853 199° South 316 364 11,400 -850 Descending New Center
Wed 08:16:56 AM 41.1503 -75.6536 166° South 302 348 10,300 -700 Descending New Center
Wed 08:17:56 AM 41.0661 -75.6256 166° South 311 358 10,000 -150 Descending New Center
Wed 08:18:56 AM 40.9817 -75.6003 167° South 316 364 10,000  Level New Center
Wed 08:19:56 AM 40.8992 -75.5753 167° South 311 358 10,000  Level New Center
Wed 08:20:56 AM 40.8253 -75.5508 166° South 311 358 10,000  Level New Center
Wed 08:21:56 AM 40.7328 -75.5197 166° South 316 364 10,000  Level New Center
Wed 08:22:56 AM 40.6503 -75.4950 167° South 316 364 10,000  Level New Center
Wed 08:23:56 AM 40.5681 -75.4675 166° South 311 358 10,000 -50 Level New Center
Wed 08:24:56 AM 40.4939 -75.4458 167° South 311 358 9,900 -50 Descending New Center
Wed 08:25:56 AM 40.4142 -75.4106 161° South 311 358 9,900 -400 Level New Center
Wed 08:26:56 AM 40.3306 -75.4186 184° South 285 328 9,100 -900 Descending New Center
Wed 08:27:56 AM 40.2736 -75.4828 221° Southwest 265 305 8,100 -600 Descending New Center
Wed 08:28:56 AM 40.2178 -75.5278 212° Southwest 259 298 7,900 -300 Descending New Center
Wed 08:29:56 AM 40.1764 -75.4653 131° Southeast 204 235 7,500 -600 Descending New Center
Wed 08:30:56 AM 40.1358 -75.3839 123° Southeast 222 255 6,700 -833 Descending New Center
Wed 08:31:44 AM 40.1167 -75.3333 116° Southeast 238 274 6,000 -408 Descending Philadelphia TRACON
Wed 08:32:39 AM 40.0833 -75.2667 123° Southeast 231 266 6,000  Level Philadelphia TRACON
Wed 08:33:44 AM 40.0333 -75.2000 134° Southeast 220 253 6,000  Level Philadelphia TRACON
Wed 08:34:45 AM 39.9833 -75.1667 153° Southeast 214 246 6,000  Level Philadelphia TRACON
Wed 08:35:51 AM 39.9833 -75.1000 90° East 198 228 6,000 -95 Level Philadelphia TRACON
Wed 08:36:51 AM 40.0000 -75.0333 72° East 188 216 5,800 -500 Descending Philadelphia TRACON
Wed 08:37:51 AM 40.0167 -74.9667 72° East 166 191 5,000 -421 Descending Philadelphia TRACON
Wed 08:38:45 AM 40.0333 -74.9167 66° East 168 193 5,000  Level Philadelphia TRACON
Wed 08:39:45 AM 40.0500 -74.8500 72° East 169 194 5,000  Level Philadelphia TRACON
Wed 08:40:45 AM 40.0000 -74.8333 166° South 209 241 5,000 -278 Level Philadelphia TRACON
Wed 08:41:33 AM 39.9667 -74.8500 201° Southwest 187 215 4,500 -950 Descending Philadelphia TRACON
Wed 08:42:45 AM 39.9333 -74.9167 237° Southwest 162 186 3,100 -636 Descending Philadelphia TRACON
Wed 08:43:45 AM 39.9333 -74.9667 270° West 164 189 3,100 -50 Level Philadelphia TRACON
Wed 08:44:45 AM 39.9167 -75.0333 252° West 162 186 3,000 -316 Descending Philadelphia TRACON
Wed 08:45:39 AM 39.9000 -75.0833 247° West 161 185 2,500 -789 Descending Philadelphia TRACON
Wed 08:46:39 AM 39.9000 -75.1333 270° West 163 188 1,500 -857 Descending Philadelphia TRACON
Wed 08:47:45 AM 39.8833 -75.1833 247° West 117 135 700 -727 Descending Philadelphia TRACON

Login

Don't have an account? Register now (free) for customized features, flight alerts, and more!